DIDEE EDDG-EDLW
Flight info
| Callsign | DIDEE |
|---|---|
| Flight time | 0h 19m |
| Altitude | 3500 |
| Route | N DCT EDDG IFR DOME3Z DOMEG/N0180F060 DOME2A |
| Aircraft | AEST/L-SBDFGRY/S |
Departure
| Time | 2026-04-23 19:07 |
|---|---|
| Airport | Münster Osnabrück Airport (EDDG) |
Arrival
| Time | 2026-04-23 19:27 |
|---|---|
| Airport | Dortmund Airport (EDLW) |
| Time | Latitude | Longitude | Altitude | Speed | Heading |
|---|---|---|---|---|---|
| 2026-04-23 18:58 | 52.13093 | 7.68289 | 163 ft | 0 kts | 181° |
| 2026-04-23 19:02 | 52.13080 | 7.68323 | 163 ft | 13 kts | 50° |
| 2026-04-23 19:02 | 52.13168 | 7.68359 | 165 ft | 12 kts | 359° |
| 2026-04-23 19:02 | 52.13239 | 7.68349 | 164 ft | 10 kts | 14° |
| 2026-04-23 19:03 | 52.13284 | 7.68454 | 164 ft | 13 kts | 69° |
| 2026-04-23 19:03 | 52.13318 | 7.68607 | 165 ft | 17 kts | 69° |
| 2026-04-23 19:03 | 52.13369 | 7.68829 | 162 ft | 24 kts | 72° |
| 2026-04-23 19:03 | 52.13417 | 7.69069 | 159 ft | 21 kts | 72° |
| 2026-04-23 19:04 | 52.13458 | 7.69277 | 162 ft | 17 kts | 71° |
| 2026-04-23 19:04 | 52.13494 | 7.69445 | 162 ft | 15 kts | 70° |
| 2026-04-23 19:04 | 52.13526 | 7.69599 | 162 ft | 14 kts | 70° |
| 2026-04-23 19:04 | 52.13556 | 7.69738 | 162 ft | 13 kts | 70° |
| 2026-04-23 19:05 | 52.13586 | 7.69880 | 160 ft | 13 kts | 72° |
| 2026-04-23 19:05 | 52.13625 | 7.70003 | 161 ft | 11 kts | 39° |
| 2026-04-23 19:05 | 52.13698 | 7.70035 | 159 ft | 11 kts | 352° |
| 2026-04-23 19:05 | 52.13756 | 7.69997 | 159 ft | 7 kts | 311° |
| 2026-04-23 19:06 | 52.13771 | 7.69943 | 161 ft | 6 kts | 271° |
| 2026-04-23 19:06 | 52.13750 | 7.69823 | 163 ft | 33 kts | 251° |
| 2026-04-23 19:06 | 52.13602 | 7.69082 | 170 ft | 92 kts | 253° |
| 2026-04-23 19:06 | 52.13348 | 7.68048 | 307 ft | 108 kts | 253° |
| 2026-04-23 19:07 | 52.13017 | 7.66772 | 578 ft | 135 kts | 252° |
| 2026-04-23 19:07 | 52.12665 | 7.65288 | 1000 ft | 139 kts | 248° |
| 2026-04-23 19:07 | 52.12027 | 7.64091 | 1494 ft | 146 kts | 221° |
| 2026-04-23 19:07 | 52.11053 | 7.63536 | 1811 ft | 155 kts | 186° |
| 2026-04-23 19:08 | 52.09938 | 7.63526 | 2034 ft | 167 kts | 182° |
| 2026-04-23 19:08 | 52.08806 | 7.63535 | 2501 ft | 160 kts | 178° |
| 2026-04-23 19:08 | 52.07680 | 7.63652 | 2934 ft | 159 kts | 176° |
| 2026-04-23 19:08 | 52.06584 | 7.63643 | 3264 ft | 162 kts | 184° |
| 2026-04-23 19:09 | 52.05484 | 7.63484 | 3706 ft | 155 kts | 186° |
| 2026-04-23 19:09 | 52.04392 | 7.63456 | 4007 ft | 160 kts | 181° |
| 2026-04-23 19:09 | 52.03277 | 7.63397 | 4342 ft | 158 kts | 180° |
| 2026-04-23 19:09 | 52.02189 | 7.63399 | 4700 ft | 157 kts | 183° |
| 2026-04-23 19:10 | 52.01083 | 7.63310 | 4973 ft | 161 kts | 183° |
| 2026-04-23 19:10 | 51.99978 | 7.63097 | 5299 ft | 159 kts | 189° |
| 2026-04-23 19:10 | 51.98886 | 7.62806 | 5578 ft | 160 kts | 191° |
| 2026-04-23 19:10 | 51.97780 | 7.62551 | 5835 ft | 161 kts | 186° |
| 2026-04-23 19:11 | 51.96664 | 7.62405 | 6108 ft | 161 kts | 187° |
| 2026-04-23 19:11 | 51.95550 | 7.62202 | 6367 ft | 162 kts | 185° |
| 2026-04-23 19:11 | 51.94380 | 7.62170 | 6392 ft | 178 kts | 181° |
| 2026-04-23 19:11 | 51.93103 | 7.62059 | 6384 ft | 190 kts | 186° |
| 2026-04-23 19:12 | 51.92216 | 7.61894 | 6382 ft | 196 kts | 188° |
| 2026-04-23 19:12 | 51.90364 | 7.61531 | 6384 ft | 204 kts | 187° |
| 2026-04-23 19:12 | 51.88937 | 7.61278 | 6384 ft | 208 kts | 187° |
| 2026-04-23 19:12 | 51.87484 | 7.61042 | 6384 ft | 211 kts | 186° |
| 2026-04-23 19:13 | 51.86016 | 7.60821 | 6381 ft | 213 kts | 186° |
| 2026-04-23 19:13 | 51.84532 | 7.60614 | 6381 ft | 214 kts | 184° |
| 2026-04-23 19:13 | 51.83083 | 7.61049 | 6392 ft | 213 kts | 153° |
| 2026-04-23 19:13 | 51.81871 | 7.62429 | 6379 ft | 214 kts | 137° |
| 2026-04-23 19:14 | 51.80760 | 7.64038 | 6375 ft | 215 kts | 134° |
| 2026-04-23 19:14 | 51.79661 | 7.65685 | 6380 ft | 216 kts | 134° |
| 2026-04-23 19:14 | 51.78555 | 7.67320 | 6378 ft | 216 kts | 135° |
| 2026-04-23 19:14 | 51.77436 | 7.68941 | 6372 ft | 217 kts | 135° |
| 2026-04-23 19:15 | 51.76306 | 7.70552 | 6375 ft | 216 kts | 135° |
| 2026-04-23 19:15 | 51.75173 | 7.72150 | 6379 ft | 216 kts | 136° |
| 2026-04-23 19:15 | 51.74040 | 7.73736 | 6375 ft | 213 kts | 136° |
| 2026-04-23 19:15 | 51.72938 | 7.75271 | 6370 ft | 205 kts | 136° |
| 2026-04-23 19:16 | 51.71884 | 7.76734 | 6313 ft | 198 kts | 136° |
| 2026-04-23 19:16 | 51.70831 | 7.78194 | 6011 ft | 204 kts | 136° |
| 2026-04-23 19:16 | 51.69744 | 7.79662 | 5756 ft | 204 kts | 138° |
| 2026-04-23 19:17 | 51.67490 | 7.82424 | 5275 ft | 203 kts | 139° |
| 2026-04-23 19:17 | 51.66363 | 7.83794 | 5023 ft | 202 kts | 139° |
| 2026-04-23 19:17 | 51.65262 | 7.85135 | 4753 ft | 196 kts | 139° |
| 2026-04-23 19:17 | 51.64182 | 7.86455 | 4424 ft | 195 kts | 139° |
| 2026-04-23 19:18 | 51.63094 | 7.87747 | 4068 ft | 195 kts | 148° |
| 2026-04-23 19:18 | 51.61795 | 7.88245 | 3750 ft | 191 kts | 184° |
| 2026-04-23 19:18 | 51.60629 | 7.87585 | 3562 ft | 173 kts | 220° |
| 2026-04-23 19:18 | 51.59944 | 7.86093 | 3314 ft | 163 kts | 257° |
| 2026-04-23 19:19 | 51.59477 | 7.82743 | 2780 ft | 162 kts | 237° |
| 2026-04-23 19:19 | 51.58664 | 7.81422 | 2871 ft | 171 kts | 239° |
| 2026-04-23 19:20 | 51.57664 | 7.77950 | 2846 ft | 177 kts | 244° |
| 2026-04-23 19:20 | 51.57065 | 7.76203 | 2834 ft | 179 kts | 246° |
| 2026-04-23 19:20 | 51.56461 | 7.74445 | 2823 ft | 181 kts | 246° |
| 2026-04-23 19:20 | 51.55848 | 7.72682 | 2830 ft | 180 kts | 246° |
| 2026-04-23 19:21 | 51.55238 | 7.70922 | 2722 ft | 178 kts | 245° |
| 2026-04-23 19:21 | 51.54245 | 7.68144 | 2128 ft | 111 kts | 246° |
| 2026-04-23 19:21 | 51.53877 | 7.67110 | 1727 ft | 103 kts | 251° |
| 2026-04-23 19:22 | 51.53565 | 7.66099 | 1395 ft | 101 kts | 248° |
| 2026-04-23 19:22 | 51.53228 | 7.65086 | 1172 ft | 105 kts | 245° |
| 2026-04-23 19:22 | 51.52484 | 7.63029 | 1087 ft | 110 kts | 243° |
| 2026-04-23 19:23 | 51.52099 | 7.61957 | 1142 ft | 112 kts | 242° |
| 2026-04-23 19:23 | 51.51603 | 7.60984 | 1172 ft | 116 kts | 216° |
| 2026-04-23 19:23 | 51.50813 | 7.60708 | 1132 ft | 122 kts | 167° |
| 2026-04-23 19:24 | 51.49824 | 7.62575 | 1274 ft | 116 kts | 84° |
| 2026-04-23 19:24 | 51.50041 | 7.63832 | 1273 ft | 116 kts | 64° |
| 2026-04-23 19:24 | 51.50719 | 7.66286 | 1175 ft | 120 kts | 43° |
| 2026-04-23 19:25 | 51.52182 | 7.66351 | 969 ft | 113 kts | 319° |
| 2026-04-23 19:25 | 51.52809 | 7.64159 | 721 ft | 109 kts | 260° |
| 2026-04-23 19:26 | 51.52130 | 7.62078 | 411 ft | 93 kts | 239° |
| 2026-04-23 19:26 | 51.51863 | 7.61320 | 414 ft | 62 kts | 242° |
| 2026-04-23 19:27 | 51.51583 | 7.60611 | 416 ft | 9 kts | 166° |
| 2026-04-23 19:27 | 51.51569 | 7.60951 | 423 ft | 13 kts | 76° |
| 2026-04-23 19:28 | 51.51493 | 7.61015 | 430 ft | 8 kts | 236° |
| 2026-04-23 19:28 | 51.51393 | 7.60721 | 436 ft | 17 kts | 240° |
| 2026-04-23 19:29 | 51.51332 | 7.60552 | 439 ft | 19 kts | 241° |
| 2026-04-23 19:29 | 51.51206 | 7.60193 | 447 ft | 15 kts | 239° |
| 2026-04-23 19:30 | 51.51159 | 7.60249 | 457 ft | 8 kts | 70° |
| 2026-04-23 19:30 | 51.51148 | 7.60324 | 463 ft | 5 kts | 99° |
| 2026-04-23 19:30 | 51.51105 | 7.60370 | 470 ft | 0 kts | 191° |